Fredericksburg, Virginia
Current Conditions -  °F | °C
As of 1:55 AM on Saturday 25 Oct 2014 (Local Time) from KEZF Reporting Station
Clear Clear  
Wind Chill:   Ceiling: Unl
Heat Index:   Visibility: 10mi
Dew Point:   Wind: 3mph
Humidity: 100%   Direction: 270°W
Pressure: 29.97"   Gusts: NA
Location:  38.3°N, 77.46°W
Report Text: KEZF 250555Z AUTO 27003KT 10SM CLR 06/06 A2997 RMK AO2 T00550055 10116 20052 402060052
Loading
Personal Weather Stations






























Interactive Weather Map
Tropical Storm Tracking
New forecast layout! Learn more

10-Day Weather Forecast

Advertisements
Track Severe Weather on mobile